createdAt,value
2022-09-11T00:08:12.367Z,-20417.50
2022-09-11T00:11:27.692Z,-20416.44
2022-09-11T00:14:46.365Z,-20416.59
2022-09-11T00:21:32.815Z,-20415.66
2022-09-11T00:24:51.495Z,-20414.75
2022-09-11T00:27:32.111Z,-20414.16
2022-09-11T00:30:33.141Z,-20413.84
2022-09-11T00:33:06.102Z,-20412.31
2022-09-11T00:36:01.256Z,-20411.09
2022-09-11T00:38:34.797Z,-20411.56
2022-09-11T00:41:27.140Z,-20410.19
2022-09-11T00:44:03.992Z,-20410.97
2022-09-11T00:46:39.417Z,-20410.66
2022-09-11T00:49:26.586Z,-20410.81
2022-09-11T00:52:24.533Z,-20408.81
2022-09-11T00:55:03.037Z,-20411.41
2022-09-11T00:57:45.934Z,-20412.94
2022-09-11T01:00:22.848Z,-20413.69
2022-09-11T01:08:05.937Z,-20414.31
2022-09-11T01:10:45.903Z,-20415.66
2022-09-11T01:13:55.988Z,-20414.75
2022-09-11T01:17:05.076Z,-20415.06
2022-09-11T01:22:31.076Z,-20415.06
2022-09-11T01:33:02.214Z,-20419.31
2022-09-11T01:35:49.418Z,-20419.31
2022-09-11T01:38:37.118Z,-20419.63
2022-09-11T01:41:11.707Z,-20419.94
2022-09-11T01:43:42.637Z,-20418.72
2022-09-11T01:46:19.556Z,-20419.63
2022-09-11T01:52:47.538Z,-20422.38
2022-09-11T01:55:28.331Z,-20420.25
2022-09-11T01:58:15.402Z,-20421.16
2022-09-11T02:01:14.289Z,-20419.63
2022-09-11T02:04:09.526Z,-20419.78
2022-09-11T02:06:48.970Z,-20419.63
2022-09-11T02:14:32.942Z,-20417.50
2022-09-11T02:33:15.271Z,-20414.75
2022-09-11T03:15:02.877Z,-20405.16
2022-09-11T03:15:11.236Z,-20406.06
2022-09-11T03:17:47.448Z,-20404.41
2022-09-11T03:20:17.877Z,-20405.78
2022-09-11T03:23:35.438Z,-20405.00
2022-09-11T03:26:25.523Z,-20404.88
2022-09-11T03:29:56.326Z,-20405.16
2022-09-11T03:32:51.395Z,-20406.53
2022-09-11T03:35:22.399Z,-20407.91
2022-09-11T03:37:50.564Z,-20409.13
2022-09-11T03:40:31.282Z,-20408.34
2022-09-11T03:43:03.481Z,-20408.97
2022-09-11T03:45:33.472Z,-20410.50
2022-09-11T03:49:22.294Z,-20410.81
2022-09-11T04:00:33.231Z,-20412.63
2022-09-11T04:27:44.796Z,-20414.00
2022-09-11T04:34:18.896Z,-20414.75
2022-09-11T04:57:35.246Z,-20416.13
2022-09-11T05:00:36.324Z,-20414.44
2022-09-11T05:06:52.745Z,-20414.44
2022-09-11T05:12:47.224Z,-20412.94
2022-09-11T05:15:22.029Z,-20412.31
2022-09-11T05:17:55.843Z,-20413.53
2022-09-11T05:20:34.317Z,-20412.47
2022-09-11T05:23:03.700Z,-20412.00
2022-09-11T05:26:06.535Z,-20414.44
2022-09-11T05:28:34.835Z,-20414.00
2022-09-11T05:31:03.471Z,-20414.59
2022-09-11T05:34:07.363Z,-20415.38
2022-09-11T05:39:52.171Z,-20417.19
2022-09-11T05:42:22.364Z,-20417.50
2022-09-11T05:44:53.153Z,-20419.03
2022-09-11T05:47:20.980Z,-20424.03
2022-09-11T05:49:49.569Z,-20425.25
2022-09-11T05:52:17.505Z,-20426.03
2022-09-11T05:54:47.268Z,-20429.06
2022-09-11T05:57:34.199Z,-20429.22
2022-09-11T06:00:03.435Z,-20434.84
2022-09-11T06:03:03.340Z,-20445.06
2022-09-11T06:06:11.638Z,-20450.06
2022-09-11T06:09:03.521Z,-20453.72
2022-09-11T06:12:30.053Z,-20462.41
2022-09-11T06:19:32.259Z,-20474.41
2022-09-11T06:22:17.729Z,-20471.22
2022-09-11T06:24:49.122Z,-20471.81
2022-09-11T06:27:29.167Z,-20473.81
2022-09-11T06:30:01.103Z,-20461.19
2022-09-11T06:32:33.136Z,-20459.19
2022-09-11T06:36:10.746Z,-20456.78
2022-09-11T06:39:46.341Z,-20453.13
2022-09-11T06:42:28.216Z,-20454.03
2022-09-11T06:45:03.727Z,-20456.16
2022-09-11T06:50:36.909Z,-20461.63
2022-09-11T06:53:19.205Z,-20469.25
2022-09-11T06:56:03.952Z,-20470.47
2022-09-11T07:20:10.774Z,-20490.06
2022-09-11T07:34:36.987Z,-20506.47
2022-09-11T07:37:15.508Z,-20515.44
2022-09-11T07:40:37.357Z,-20513.00
2022-09-11T07:42:41.282Z,-20504.19
2022-09-11T07:45:29.452Z,-20499.78
2022-09-11T07:48:09.127Z,-20496.31
2022-09-11T07:57:41.471Z,-20512.09
2022-09-11T08:27:24.961Z,-20584.78
2022-09-11T08:30:21.672Z,-20573.09
2022-09-11T08:33:02.433Z,-20591.44
2022-09-11T08:36:31.320Z,-20610.06
2022-09-11T08:40:07.678Z,-20586.13
2022-09-11T08:46:16.983Z,-20625.97
2022-09-11T08:48:50.687Z,-20613.41
2022-09-11T08:51:35.325Z,-20610.97
2022-09-11T08:54:13.244Z,-20594.63
2022-09-11T08:56:44.289Z,-20597.66
2022-09-11T08:59:27.055Z,-20595.84
2022-09-11T09:02:11.409Z,-20611.59
2022-09-11T09:04:54.772Z,-20604.63
2022-09-11T09:07:32.130Z,-20624.91
2022-09-11T09:10:13.437Z,-20647.47
2022-09-11T09:12:51.094Z,-20616.44
2022-09-11T09:15:41.203Z,-20616.44
2022-09-11T09:18:24.492Z,-20638.22
2022-09-11T09:21:05.637Z,-20654.13
2022-09-11T09:23:39.754Z,-20634.28
2022-09-11T09:26:17.799Z,-20642.16
2022-09-11T09:28:48.456Z,-20664.69
2022-09-11T09:31:22.154Z,-20675.44
2022-09-11T09:33:55.435Z,-20654.88
2022-09-11T09:36:33.897Z,-20640.06
2022-09-11T09:39:03.913Z,-20670.75
2022-09-11T09:41:52.120Z,-20684.81
2022-09-11T09:44:36.723Z,-20683.91
2022-09-11T09:47:18.146Z,-20684.19
2022-09-11T09:49:50.360Z,-20718.47
2022-09-11T09:52:22.368Z,-20722.84
2022-09-11T09:55:07.621Z,-20723.31
2022-09-11T09:57:39.656Z,-20765.69
2022-09-11T10:00:20.532Z,-20756.03
2022-09-11T10:02:58.490Z,-20737.19
2022-09-11T10:05:31.293Z,-20712.88
2022-09-11T10:08:03.909Z,-20712.00
2022-09-11T10:10:57.645Z,-20693.56
2022-09-11T10:13:40.377Z,-20680.88
2022-09-11T10:16:44.307Z,-20652.91
2022-09-11T10:19:41.034Z,-20651.25
2022-09-11T10:22:26.149Z,-20647.63
2022-09-11T10:25:08.680Z,-20637.94
2022-09-11T10:27:44.564Z,-20620.06
2022-09-11T10:30:31.447Z,-20630.66
2022-09-11T10:33:03.739Z,-20628.41
2022-09-11T10:35:36.346Z,-20648.22
2022-09-11T10:38:18.250Z,-20676.94
2022-09-11T10:41:01.776Z,-20725.88
2022-09-11T10:43:36.520Z,-20724.81
2022-09-11T10:46:14.736Z,-20709.72
2022-09-11T10:48:45.905Z,-20678.16
2022-09-11T10:51:15.148Z,-20651.84
2022-09-11T10:53:59.252Z,-20639.16
2022-09-11T10:56:27.880Z,-20627.63
2022-09-11T10:59:01.414Z,-20620.69
2022-09-11T11:01:29.313Z,-20621.88
2022-09-11T11:03:57.207Z,-20619.16
2022-09-11T11:06:44.315Z,-20630.97
2022-09-11T11:09:31.232Z,-20647.00
2022-09-11T11:12:13.977Z,-20617.34
2022-09-11T11:15:02.707Z,-20599.47
2022-09-11T11:17:41.503Z,-20594.94
2022-09-11T11:20:32.301Z,-20596.75
2022-09-11T11:23:18.875Z,-20596.59
2022-09-11T11:25:54.295Z,-20595.69
2022-09-11T11:28:44.079Z,-20643.06
2022-09-11T11:31:29.045Z,-20665.47
2022-09-11T11:34:16.846Z,-20692.06
2022-09-11T11:36:51.064Z,-20697.78
2022-09-11T11:39:25.057Z,-20720.75
2022-09-11T11:42:04.263Z,-20758.00
2022-09-11T11:44:38.001Z,-20786.31
2022-09-11T11:47:09.869Z,-20770.66
2022-09-11T11:49:50.287Z,-20741.88
2022-09-11T11:52:31.289Z,-20754.22
2022-09-11T11:55:06.125Z,-20775.00
2022-09-11T11:57:41.591Z,-20764.78
2022-09-11T12:00:13.229Z,-20762.38
2022-09-11T12:02:49.523Z,-20765.38
2022-09-11T12:05:20.635Z,-20768.69
2022-09-11T12:07:48.639Z,-20735.06
2022-09-11T12:10:32.052Z,-20740.81
2022-09-11T12:13:02.334Z,-20720.44
2022-09-11T12:15:36.670Z,-20666.06
2022-09-11T12:18:07.987Z,-20666.97
2022-09-11T12:20:43.664Z,-20682.38
2022-09-11T12:23:35.944Z,-20684.19
2022-09-11T12:26:22.143Z,-20694.16
2022-09-11T12:28:50.691Z,-20707.47
2022-09-11T12:31:19.008Z,-20720.75
2022-09-11T12:33:57.212Z,-20700.53
2022-09-11T12:36:37.093Z,-20693.41
2022-09-11T12:39:17.074Z,-20695.38
2022-09-11T12:41:46.265Z,-20702.78
2022-09-11T12:44:54.038Z,-20703.69
2022-09-11T12:47:24.560Z,-20702.63
2022-09-11T12:49:59.053Z,-20711.69
2022-09-11T12:52:33.898Z,-20715.91
2022-09-11T12:55:07.757Z,-20709.72
2022-09-11T12:57:40.794Z,-20701.72
2022-09-11T13:00:22.536Z,-20690.25
2022-09-11T13:02:56.840Z,-20678.47
2022-09-11T13:05:28.349Z,-20674.69
2022-09-11T13:07:59.630Z,-20672.88
2022-09-11T13:10:35.249Z,-20685.41
2022-09-11T13:13:07.265Z,-20675.13
2022-09-11T13:15:44.623Z,-20681.47
2022-09-11T13:18:32.193Z,-20703.84
2022-09-11T13:21:04.622Z,-20736.28
2022-09-11T13:23:32.822Z,-20740.66
2022-09-11T13:26:02.759Z,-20738.84
2022-09-11T13:28:32.873Z,-20725.56
2022-09-11T13:31:04.797Z,-20745.78
2022-09-11T13:33:33.694Z,-20760.25
2022-09-11T13:36:06.893Z,-20763.41
2022-09-11T13:38:37.095Z,-20765.53
2022-09-11T13:41:07.563Z,-20740.66
2022-09-11T13:43:45.252Z,-20709.41
2022-09-11T13:46:22.131Z,-20708.66
2022-09-11T13:48:53.132Z,-20667.56
2022-09-11T13:51:25.569Z,-20670.00
2022-09-11T13:53:59.460Z,-20677.41
2022-09-11T13:56:46.951Z,-20683.00
2022-09-11T13:59:46.217Z,-20709.88
2022-09-11T14:02:26.613Z,-20711.84
2022-09-11T14:05:03.446Z,-20719.09
2022-09-11T14:07:33.244Z,-20736.13
2022-09-11T14:10:05.916Z,-20729.34
2022-09-11T14:12:35.380Z,-20722.84
2022-09-11T14:15:11.494Z,-20708.06
2022-09-11T14:17:42.231Z,-20716.34
2022-09-11T14:20:17.165Z,-20705.19
2022-09-11T14:22:45.218Z,-20691.91
2022-09-11T14:25:24.152Z,-20687.22
2022-09-11T14:27:52.544Z,-20701.41
2022-09-11T14:30:45.490Z,-20701.72
2022-09-11T14:33:24.943Z,-20687.06
2022-09-11T14:35:55.338Z,-20691.75
2022-09-11T14:38:26.810Z,-20688.13
2022-09-11T14:40:58.593Z,-20684.34
2022-09-11T14:43:30.943Z,-20671.06
2022-09-11T14:46:00.571Z,-20666.22
2022-09-11T14:48:29.019Z,-20657.00
2022-09-11T14:50:57.009Z,-20670.00
2022-09-11T14:53:29.932Z,-20668.63
2022-09-11T14:55:59.980Z,-20661.97
2022-09-11T14:58:29.617Z,-20664.56
2022-09-11T15:00:58.379Z,-20662.28
2022-09-11T15:03:28.809Z,-20662.44
2022-09-11T15:05:58.909Z,-20664.09
2022-09-11T15:08:27.038Z,-20671.34
2022-09-11T15:10:55.123Z,-20671.66
2022-09-11T15:13:23.167Z,-20673.31
2022-09-11T15:15:53.320Z,-20674.53
2022-09-11T15:18:21.206Z,-20670.91
2022-09-11T15:20:50.328Z,-20665.16
2022-09-11T15:23:18.401Z,-20664.09
2022-09-11T15:25:46.315Z,-20667.88
2022-09-11T15:28:14.273Z,-20670.28
2022-09-11T15:30:42.921Z,-20670.91
2022-09-11T15:33:11.514Z,-20653.34
2022-09-11T15:35:39.266Z,-20661.97
2022-09-11T15:38:11.145Z,-20663.94
2022-09-11T15:40:39.169Z,-20667.41
2022-09-11T15:43:07.521Z,-20655.94
2022-09-11T15:45:35.374Z,-20651.53
2022-09-11T15:48:03.560Z,-20664.84
2022-09-11T15:50:31.238Z,-20664.41
2022-09-11T15:52:58.965Z,-20657.75
2022-09-11T15:55:30.169Z,-20661.81
2022-09-11T15:58:00.373Z,-20661.53
2022-09-11T16:00:29.554Z,-20653.22
2022-09-11T16:02:57.516Z,-20656.84
2022-09-11T16:05:25.624Z,-20662.44
2022-09-11T16:07:53.376Z,-20665.47
2022-09-11T16:10:21.181Z,-20664.69
2022-09-11T16:12:50.314Z,-20661.81
2022-09-11T16:15:18.699Z,-20659.72
2022-09-11T16:17:46.884Z,-20660.94
2022-09-11T16:20:15.350Z,-20664.56
2022-09-11T16:22:44.118Z,-20662.59
2022-09-11T16:25:12.079Z,-20653.66
2022-09-11T16:27:39.851Z,-20650.34
2022-09-11T16:30:42.572Z,-20647.16
2022-09-11T16:32:59.320Z,-20646.41
2022-09-11T16:35:27.292Z,-20648.81
2022-09-11T16:37:54.972Z,-20644.88
2022-09-11T16:40:22.740Z,-20637.94
2022-09-11T16:42:50.705Z,-20641.41
2022-09-11T16:45:20.009Z,-20635.81
2022-09-11T16:47:47.883Z,-20635.81
2022-09-11T16:50:15.744Z,-20637.94
2022-09-11T16:52:43.585Z,-20637.03
2022-09-11T16:55:11.505Z,-20626.44
2022-09-11T16:57:39.672Z,-20624.47
2022-09-11T17:00:09.667Z,-20620.84
2022-09-11T17:02:38.814Z,-20624.16
2022-09-11T17:05:07.141Z,-20624.91
2022-09-11T17:07:37.134Z,-20618.25
2022-09-11T17:10:05.721Z,-20622.94
2022-09-11T17:12:33.375Z,-20620.97
2022-09-11T17:15:01.901Z,-20611.75
2022-09-11T17:17:31.074Z,-20615.22
2022-09-11T17:20:00.267Z,-20607.03
2022-09-11T17:22:29.625Z,-20608.25
2022-09-11T17:24:57.444Z,-20608.25
2022-09-11T17:27:25.108Z,-20608.88
2022-09-11T17:29:52.752Z,-20601.28
2022-09-11T17:32:28.204Z,-20601.44
2022-09-11T17:35:04.317Z,-20590.69
2022-09-11T17:37:36.333Z,-20588.41
2022-09-11T17:40:13.739Z,-20583.41
2022-09-11T17:43:09.469Z,-20571.59
2022-09-11T17:45:46.122Z,-20559.16
2022-09-11T17:48:14.500Z,-20547.00
2022-09-11T17:50:42.471Z,-20539.56
2022-09-11T17:53:14.337Z,-20528.66
2022-09-11T17:55:42.354Z,-20520.00
2022-09-11T17:58:40.541Z,-20520.00
2022-09-11T18:02:13.408Z,-20510.88
2022-09-11T19:41:35.185Z,-20418.72
2022-09-11T19:44:24.638Z,-20419.03
2022-09-11T19:47:25.065Z,-20417.66
2022-09-11T19:49:55.405Z,-20417.81
2022-09-11T19:52:33.271Z,-20415.38
2022-09-11T19:55:03.997Z,-20413.69
2022-09-11T19:57:39.376Z,-20411.56
2022-09-11T20:00:18.319Z,-20408.22
2022-09-11T20:02:46.447Z,-20408.22
2022-09-11T20:05:25.824Z,-20408.50
2022-09-11T20:07:54.299Z,-20405.16
2022-09-11T20:10:26.130Z,-20404.72
2022-09-11T20:12:57.601Z,-20402.88
2022-09-11T20:15:45.639Z,-20403.19
2022-09-11T20:18:28.845Z,-20401.66
2022-09-11T20:21:02.191Z,-20403.19
2022-09-11T20:23:30.461Z,-20400.44
2022-09-11T20:26:21.255Z,-20400.28
2022-09-11T20:29:06.451Z,-20398.31
2022-09-11T20:31:49.240Z,-20397.25
2022-09-11T20:34:36.766Z,-20397.69
2022-09-11T20:37:09.899Z,-20396.47
2022-09-11T20:39:38.689Z,-20393.44
2022-09-11T20:45:07.850Z,-20392.66
2022-09-11T20:47:44.338Z,-20388.84
2022-09-11T20:50:15.016Z,-20388.84
2022-09-11T20:52:46.546Z,-20384.91
2022-09-11T20:55:14.958Z,-20385.50
2022-09-11T20:57:43.003Z,-20384.28
2022-09-11T21:00:13.896Z,-20380.63
2022-09-11T21:02:41.754Z,-20377.88
2022-09-11T21:05:10.171Z,-20376.06
2022-09-11T21:07:37.964Z,-20375.13
2022-09-11T21:10:06.682Z,-20377.28
2022-09-11T21:12:34.466Z,-20377.28
2022-09-11T21:15:12.258Z,-20376.22
2022-09-11T21:17:44.081Z,-20374.38
2022-09-11T21:20:11.938Z,-20376.38
2022-09-11T21:22:40.775Z,-20374.06
2022-09-11T21:25:09.984Z,-20373.63
2022-09-11T21:27:37.770Z,-20372.56
2022-09-11T21:30:06.166Z,-20372.09
2022-09-11T21:32:33.816Z,-20371.50
2022-09-11T21:35:02.897Z,-20369.97
2022-09-11T21:37:30.584Z,-20366.00
2022-09-11T21:39:58.338Z,-20364.16
2022-09-11T21:42:26.736Z,-20362.94
2022-09-11T21:44:57.284Z,-20362.63
2022-09-11T21:47:26.460Z,-20362.34
2022-09-11T21:49:54.231Z,-20359.75
2022-09-11T21:52:23.341Z,-20358.66
2022-09-11T21:54:54.651Z,-20358.81
2022-09-11T21:57:22.759Z,-20357.75
2022-09-11T21:59:50.533Z,-20356.84
2022-09-11T22:02:18.510Z,-20358.06
2022-09-11T22:04:46.174Z,-20357.00
2022-09-11T22:07:17.956Z,-20355.31
2022-09-11T22:09:48.468Z,-20353.94
2022-09-11T22:12:17.463Z,-20353.19
2022-09-11T22:14:48.721Z,-20354.25
2022-09-11T22:17:25.302Z,-20354.72
2022-09-11T22:19:53.181Z,-20353.47
2022-09-11T22:22:21.337Z,-20351.66
2022-09-11T22:24:53.608Z,-20349.06
2022-09-11T22:27:22.060Z,-20349.22
2022-09-11T22:29:49.837Z,-20348.91
2022-09-11T22:32:17.636Z,-20349.22
2022-09-11T22:34:45.527Z,-20348.75
2022-09-11T22:37:13.482Z,-20348.31
2022-09-11T22:39:41.714Z,-20347.06
2022-09-11T22:42:15.738Z,-20346.31
2022-09-11T22:44:43.575Z,-20344.94
2022-09-11T22:47:11.532Z,-20344.34
2022-09-11T22:49:39.963Z,-20343.41
2022-09-11T22:52:10.716Z,-20343.56
2022-09-11T22:54:38.496Z,-20342.66
2022-09-11T22:57:06.581Z,-20340.53
2022-09-11T22:59:35.575Z,-20342.19
2022-09-11T23:02:03.525Z,-20339.16
2022-09-11T23:04:31.224Z,-20339.59
2022-09-11T23:07:16.845Z,-20336.84
2022-09-11T23:09:46.098Z,-20336.84
2022-09-11T23:12:13.772Z,-20335.94
2022-09-11T23:14:47.499Z,-20335.47
2022-09-11T23:17:15.484Z,-20333.03
2022-09-11T23:19:43.252Z,-20333.34
2022-09-11T23:22:14.709Z,-20331.81
2022-09-11T23:24:44.265Z,-20331.66
2022-09-11T23:27:11.996Z,-20333.03
2022-09-11T23:30:37.784Z,-20332.13
2022-09-11T23:33:46.378Z,-20330.59
2022-09-11T23:36:16.327Z,-20329.53
2022-09-11T23:38:52.325Z,-20329.06
2022-09-11T23:41:29.379Z,-20328.91
2022-09-11T23:43:58.515Z,-20326.31
2022-09-11T23:46:27.027Z,-20326.31
2022-09-11T23:48:56.180Z,-20325.72
2022-09-11T23:51:33.036Z,-20326.63
2022-09-11T23:54:01.293Z,-20325.09
2022-09-11T23:56:29.224Z,-20323.88
2022-09-11T23:58:57.112Z,-20323.28
